createdAt,value
2018-04-14T00:01:56.205Z,92.17
2018-04-14T00:04:23.809Z,80.60
2018-04-14T00:06:51.429Z,81.40
2018-04-14T00:09:19.076Z,93.57
2018-04-14T00:11:46.678Z,79.47
2018-04-14T00:14:14.434Z,87.27
2018-04-14T00:16:42.053Z,101.60
2018-04-14T00:19:09.692Z,94.27
2018-04-14T00:21:37.378Z,97.93
2018-04-14T00:24:05.061Z,100.77
2018-04-14T00:26:32.667Z,94.77
2018-04-14T00:29:00.302Z,95.67
2018-04-14T00:31:27.928Z,97.67
2018-04-14T00:33:55.594Z,91.20
2018-04-14T00:36:23.613Z,103.23
2018-04-14T00:38:51.298Z,89.80
2018-04-14T00:41:19.225Z,96.87
2018-04-14T00:43:46.888Z,94.17
2018-04-14T00:46:14.598Z,82.77
2018-04-14T00:48:42.272Z,96.00
2018-04-14T00:51:10.026Z,77.97
2018-04-14T00:53:47.776Z,92.67
2018-04-14T00:56:15.499Z,94.87
2018-04-14T00:58:43.530Z,94.27
2018-04-14T01:01:11.174Z,96.77
2018-04-14T01:03:38.791Z,90.10
2018-04-14T01:06:07.541Z,85.53
2018-04-14T01:08:35.443Z,88.90
2018-04-14T01:11:03.092Z,84.70
2018-04-14T01:13:30.751Z,77.80
2018-04-14T01:15:58.470Z,85.70
2018-04-14T01:18:26.125Z,89.50
2018-04-14T01:20:54.005Z,89.63
2018-04-14T01:23:21.925Z,68.27
2018-04-14T01:25:49.603Z,72.30
2018-04-14T01:28:17.204Z,89.07
2018-04-14T01:30:44.814Z,80.90
2018-04-14T01:33:12.543Z,85.77
2018-04-14T01:35:40.321Z,93.33
2018-04-14T01:38:07.921Z,84.27
2018-04-14T01:40:35.509Z,87.83
2018-04-14T01:43:03.251Z,80.83
2018-04-14T01:45:30.881Z,85.87
2018-04-14T01:47:58.511Z,96.03
2018-04-14T01:50:26.265Z,85.63
2018-04-14T01:52:53.888Z,87.47
2018-04-14T01:55:21.511Z,107.23
2018-04-14T01:57:49.238Z,88.13
2018-04-14T02:00:17.123Z,105.40
2018-04-14T02:02:44.877Z,89.90
2018-04-14T02:05:12.763Z,95.07
2018-04-14T02:07:40.453Z,84.03
2018-04-14T02:10:08.295Z,89.23
2018-04-14T02:12:35.964Z,95.20
2018-04-14T02:15:03.547Z,101.37
2018-04-14T02:17:31.255Z,80.47
2018-04-14T02:19:59.135Z,85.90
2018-04-14T02:22:26.888Z,83.57
2018-04-14T02:24:54.554Z,76.67
2018-04-14T02:27:22.166Z,81.80
2018-04-14T02:29:49.819Z,86.50
2018-04-14T02:32:17.417Z,75.87
2018-04-14T02:34:44.998Z,75.20
2018-04-14T02:37:12.765Z,76.50
2018-04-14T02:39:40.345Z,77.30
2018-04-14T02:42:07.957Z,75.97
2018-04-14T02:44:35.594Z,78.57
2018-04-14T02:47:03.269Z,68.90
2018-04-14T02:49:30.957Z,81.30
2018-04-14T02:51:58.601Z,77.43
2018-04-14T02:54:26.248Z,75.80
2018-04-14T02:56:53.856Z,96.20
2018-04-14T02:59:21.838Z,70.37
2018-04-14T03:01:49.468Z,67.27
2018-04-14T03:04:17.311Z,80.97
2018-04-14T03:06:45.008Z,75.03
2018-04-14T03:09:12.612Z,73.27
2018-04-14T03:11:40.195Z,67.70
2018-04-14T03:14:07.886Z,77.83
2018-04-14T03:16:35.806Z,70.60
2018-04-14T03:19:03.545Z,80.37
2018-04-14T03:21:31.223Z,78.90
2018-04-14T03:23:58.891Z,63.40
2018-04-14T03:26:27.271Z,68.80
2018-04-14T03:28:54.864Z,59.60
2018-04-14T03:31:22.514Z,55.07
2018-04-14T03:33:50.147Z,70.17
2018-04-14T03:36:17.789Z,58.70
2018-04-14T03:38:45.676Z,59.70
2018-04-14T03:41:13.274Z,57.57
2018-04-14T03:43:40.882Z,52.83
2018-04-14T03:46:08.578Z,49.37
2018-04-14T03:48:36.515Z,63.03
2018-04-14T03:51:04.138Z,58.00
2018-04-14T03:53:31.721Z,50.13
2018-04-14T03:55:59.398Z,53.77
2018-04-14T03:58:27.368Z,56.10
2018-04-14T04:00:55.271Z,53.30
2018-04-14T04:03:22.909Z,57.27
2018-04-14T04:05:50.525Z,59.73
2018-04-14T04:08:18.287Z,58.53
2018-04-14T04:10:45.916Z,52.13
2018-04-14T04:13:13.546Z,55.57
2018-04-14T04:15:41.252Z,49.57
2018-04-14T04:18:08.889Z,48.60
2018-04-14T04:20:48.366Z,49.80
2018-04-14T04:23:27.762Z,44.70
2018-04-14T04:25:55.748Z,41.53
2018-04-14T04:28:25.144Z,40.67
2018-04-14T04:30:52.916Z,42.27
2018-04-14T04:33:20.505Z,34.10
2018-04-14T04:35:48.225Z,33.80
2018-04-14T04:38:15.961Z,35.60
2018-04-14T04:40:44.150Z,35.00
2018-04-14T04:43:11.909Z,39.90
2018-04-14T04:45:39.632Z,38.83
2018-04-14T04:48:07.319Z,39.20
2018-04-14T04:50:34.997Z,40.50
2018-04-14T04:53:02.876Z,38.10
2018-04-14T04:55:30.743Z,50.17
2018-04-14T04:57:58.464Z,52.37
2018-04-14T05:00:26.170Z,38.20
2018-04-14T05:02:53.805Z,44.60
2018-04-14T05:05:21.522Z,44.43
2018-04-14T05:07:49.196Z,52.80
2018-04-14T05:10:16.819Z,44.73
2018-04-14T05:12:44.429Z,45.27
2018-04-14T05:15:12.046Z,46.00
2018-04-14T05:17:40.029Z,50.10
2018-04-14T05:20:07.701Z,41.67
2018-04-14T05:22:35.310Z,69.83
2018-04-14T05:25:03.427Z,39.20
2018-04-14T05:27:31.053Z,51.07
2018-04-14T05:29:58.674Z,49.13
2018-04-14T05:32:26.420Z,55.50
2018-04-14T05:34:54.048Z,54.33
2018-04-14T05:37:21.659Z,50.47
2018-04-14T05:39:49.668Z,54.80
2018-04-14T05:42:17.313Z,54.20
2018-04-14T05:44:44.904Z,44.53
2018-04-14T05:47:12.883Z,56.83
2018-04-14T05:49:40.546Z,45.67
2018-04-14T05:52:08.222Z,56.27
2018-04-14T05:54:35.931Z,49.67
2018-04-14T05:57:03.515Z,44.93
2018-04-14T05:59:31.261Z,45.27
2018-04-14T06:01:59.182Z,49.07
2018-04-14T06:04:26.839Z,49.20
2018-04-14T06:06:54.508Z,50.73
2018-04-14T06:09:22.682Z,60.63
2018-04-14T06:11:50.363Z,45.73
2018-04-14T06:14:17.955Z,44.80
2018-04-14T06:16:45.853Z,45.67
2018-04-14T06:19:13.576Z,50.47
2018-04-14T06:21:41.686Z,43.20
2018-04-14T06:24:09.336Z,66.93
2018-04-14T06:26:36.997Z,53.00
2018-04-14T06:29:04.611Z,52.33
2018-04-14T06:31:32.204Z,54.43
2018-04-14T06:33:59.907Z,45.23
2018-04-14T06:36:27.566Z,45.20
2018-04-14T06:38:55.304Z,50.70
2018-04-14T06:41:23.836Z,48.00
2018-04-14T06:43:51.674Z,48.80
2018-04-14T06:46:19.927Z,42.03
2018-04-14T06:48:47.827Z,45.47
2018-04-14T06:51:15.674Z,40.87
2018-04-14T06:53:43.638Z,48.00
2018-04-14T06:56:11.228Z,50.87
2018-04-14T06:58:38.807Z,47.33
2018-04-14T07:01:06.442Z,52.63
2018-04-14T07:03:34.042Z,43.63
2018-04-14T07:06:01.665Z,48.80
2018-04-14T07:08:29.629Z,54.37
2018-04-14T07:10:57.238Z,48.20
2018-04-14T07:13:24.890Z,40.47
2018-04-14T07:15:52.924Z,47.73
2018-04-14T07:18:20.546Z,41.23
2018-04-14T07:20:48.464Z,50.07
2018-04-14T07:23:16.168Z,46.00
2018-04-14T07:25:43.746Z,50.53
2018-04-14T07:28:11.484Z,43.17
2018-04-14T07:30:39.154Z,48.40
2018-04-14T07:33:06.809Z,43.97
2018-04-14T07:35:34.428Z,49.57
2018-04-14T07:38:02.113Z,47.07
2018-04-14T07:40:30.190Z,57.47
2018-04-14T07:42:57.862Z,53.50
2018-04-14T07:45:25.489Z,48.73
2018-04-14T07:47:53.624Z,56.43
2018-04-14T07:50:21.202Z,58.90
2018-04-14T07:52:48.799Z,49.97
2018-04-14T07:55:16.821Z,60.10
2018-04-14T07:57:44.832Z,52.97
2018-04-14T08:00:12.425Z,52.73
2018-04-14T08:02:40.201Z,50.57
2018-04-14T08:05:08.014Z,61.40
2018-04-14T08:07:35.794Z,49.87
2018-04-14T08:10:03.464Z,64.33
2018-04-14T08:12:31.126Z,48.03
2018-04-14T08:14:59.193Z,64.07
2018-04-14T08:17:26.784Z,50.47
2018-04-14T08:19:54.686Z,62.13
2018-04-14T08:22:22.323Z,55.83
2018-04-14T08:24:49.917Z,55.97
2018-04-14T08:27:17.544Z,54.07
2018-04-14T08:29:45.431Z,55.90
2018-04-14T08:32:13.101Z,49.40
2018-04-14T08:34:41.095Z,53.90
2018-04-14T08:37:08.878Z,56.90
2018-04-14T08:39:36.486Z,57.77
2018-04-14T08:42:04.066Z,54.93
2018-04-14T08:44:31.717Z,57.57
2018-04-14T08:46:59.440Z,54.77
2018-04-14T08:49:27.151Z,53.20
2018-04-14T08:51:54.749Z,61.57
2018-04-14T08:54:22.437Z,51.03
2018-04-14T08:56:50.136Z,60.87
2018-04-14T08:59:17.721Z,59.87
2018-04-14T09:01:46.215Z,57.07
2018-04-14T09:04:13.994Z,54.83
2018-04-14T09:06:41.697Z,57.63
2018-04-14T09:09:09.388Z,59.20
2018-04-14T09:11:37.080Z,49.00
2018-04-14T09:14:04.664Z,58.50
2018-04-14T09:16:32.332Z,59.33
2018-04-14T09:18:59.961Z,57.27
2018-04-14T09:21:28.031Z,55.93
2018-04-14T09:23:55.672Z,58.47
2018-04-14T09:26:23.267Z,51.23
2018-04-14T09:28:51.302Z,49.70
2018-04-14T09:31:18.899Z,50.23
2018-04-14T09:33:46.553Z,53.53
2018-04-14T09:36:14.213Z,51.80
2018-04-14T09:38:41.970Z,50.30
2018-04-14T09:41:09.577Z,53.43
2018-04-14T09:43:37.760Z,50.43
2018-04-14T09:46:05.412Z,49.53
2018-04-14T09:48:33.116Z,55.47
2018-04-14T09:51:00.851Z,46.10
2018-04-14T09:53:28.459Z,48.13
2018-04-14T09:55:56.080Z,50.50
2018-04-14T09:58:23.674Z,47.93
2018-04-14T10:00:56.913Z,52.27
2018-04-14T10:03:24.650Z,52.60
2018-04-14T10:05:52.748Z,58.83
2018-04-14T10:08:20.376Z,47.70
2018-04-14T10:10:48.052Z,50.90
2018-04-14T10:13:15.778Z,47.47
2018-04-14T10:15:43.435Z,54.77
2018-04-14T10:18:11.017Z,40.80
2018-04-14T10:20:38.721Z,50.43
2018-04-14T10:23:06.379Z,48.90
2018-04-14T10:25:34.086Z,45.53
2018-04-14T10:28:02.157Z,51.30
2018-04-14T10:30:29.805Z,49.60
2018-04-14T10:32:57.529Z,43.23
2018-04-14T10:35:25.135Z,47.97
2018-04-14T10:37:52.880Z,47.27
2018-04-14T10:40:20.511Z,55.27
2018-04-14T10:42:48.464Z,45.27
2018-04-14T10:45:16.282Z,47.53
2018-04-14T10:47:43.930Z,44.33
2018-04-14T10:50:11.620Z,46.43
2018-04-14T10:52:39.224Z,45.07
2018-04-14T10:55:15.755Z,46.40
2018-04-14T10:57:43.335Z,50.70
2018-04-14T11:00:11.315Z,55.67
2018-04-14T11:02:38.991Z,45.77
2018-04-14T11:05:06.733Z,50.00
2018-04-14T11:07:34.495Z,46.30
2018-04-14T11:10:02.092Z,47.00
2018-04-14T11:12:29.755Z,48.53
2018-04-14T11:14:57.375Z,50.00
2018-04-14T11:17:24.960Z,41.47
2018-04-14T11:19:53.026Z,46.90
2018-04-14T11:22:20.618Z,44.17
2018-04-14T11:24:48.668Z,52.50
2018-04-14T11:27:16.262Z,44.40
2018-04-14T11:29:43.979Z,41.80
2018-04-14T11:32:11.591Z,43.33
2018-04-14T11:34:39.224Z,41.33
2018-04-14T11:37:06.859Z,44.53
2018-04-14T11:39:34.464Z,36.80
2018-04-14T11:42:02.041Z,47.33
2018-04-14T11:44:29.715Z,40.00
2018-04-14T11:46:57.437Z,38.40
2018-04-14T11:49:25.037Z,50.17
2018-04-14T11:51:52.996Z,35.27
2018-04-14T11:54:20.613Z,52.73
2018-04-14T11:56:48.269Z,50.30
2018-04-14T11:59:15.964Z,45.60
2018-04-14T12:01:43.988Z,44.63
2018-04-14T12:04:11.648Z,48.73
2018-04-14T12:06:39.396Z,47.43
2018-04-14T12:09:07.534Z,37.67
2018-04-14T12:11:35.456Z,43.23
2018-04-14T12:14:03.114Z,41.90
2018-04-14T12:16:30.781Z,40.50
2018-04-14T12:18:58.747Z,41.43
2018-04-14T12:21:26.343Z,40.17
2018-04-14T12:23:54.124Z,40.47
2018-04-14T12:26:21.720Z,33.13
2018-04-14T12:28:50.916Z,39.83
2018-04-14T12:31:18.502Z,46.47
2018-04-14T12:33:46.273Z,37.83
2018-04-14T12:36:13.908Z,40.63
2018-04-14T12:38:42.521Z,35.03
2018-04-14T12:41:10.349Z,44.07
2018-04-14T12:43:37.964Z,37.13
2018-04-14T12:46:05.643Z,32.50
2018-04-14T12:48:33.302Z,36.80
2018-04-14T12:51:00.940Z,38.70
2018-04-14T12:53:28.543Z,35.30
2018-04-14T12:55:56.250Z,35.77
2018-04-14T12:58:23.899Z,43.07
2018-04-14T13:00:51.580Z,39.30
2018-04-14T13:03:19.210Z,34.87
2018-04-14T13:05:46.840Z,36.07
2018-04-14T13:08:14.862Z,36.87
2018-04-14T13:10:42.531Z,38.87
2018-04-14T13:13:10.111Z,33.97
2018-04-14T13:15:37.735Z,40.20
2018-04-14T13:18:05.712Z,32.97
2018-04-14T13:20:33.400Z,34.80
2018-04-14T13:23:01.398Z,33.00
2018-04-14T13:25:29.001Z,33.60
2018-04-14T13:27:56.980Z,37.57
2018-04-14T13:30:24.607Z,38.53
2018-04-14T13:32:52.342Z,32.77
2018-04-14T13:35:20.000Z,36.03
2018-04-14T13:37:47.610Z,36.53
2018-04-14T13:40:15.234Z,33.37
2018-04-14T13:42:42.945Z,40.63
2018-04-14T13:45:10.553Z,38.00
2018-04-14T13:47:38.185Z,36.53
2018-04-14T13:50:05.957Z,35.70
2018-04-14T13:52:33.934Z,39.77
2018-04-14T13:55:01.706Z,39.67
2018-04-14T13:57:29.300Z,45.03
2018-04-14T13:59:56.882Z,38.70
2018-04-14T14:02:24.486Z,39.23
2018-04-14T14:04:52.444Z,39.17
2018-04-14T14:07:20.114Z,34.13
2018-04-14T14:09:47.775Z,42.17
2018-04-14T14:12:15.384Z,36.30
2018-04-14T14:14:43.459Z,39.90
2018-04-14T14:17:11.050Z,44.73
2018-04-14T14:19:38.700Z,50.40
2018-04-14T14:22:06.712Z,45.83
2018-04-14T14:24:34.372Z,42.83
2018-04-14T14:27:02.071Z,46.07
2018-04-14T14:29:29.747Z,49.07
2018-04-14T14:31:57.570Z,43.73
2018-04-14T14:34:25.245Z,44.73
2018-04-14T14:36:52.887Z,48.23
2018-04-14T14:39:20.469Z,46.20
2018-04-14T14:41:48.088Z,51.43
2018-04-14T14:44:15.763Z,45.73
2018-04-14T14:46:43.815Z,46.37
2018-04-14T14:49:11.397Z,49.83
2018-04-14T14:51:39.018Z,48.43
2018-04-14T14:54:07.006Z,44.57
2018-04-14T14:56:34.755Z,51.70
2018-04-14T14:59:02.427Z,44.50
2018-04-14T15:01:30.106Z,50.10
2018-04-14T15:03:57.714Z,50.30
2018-04-14T15:06:25.392Z,47.87
2018-04-14T15:08:53.135Z,47.03
2018-04-14T15:11:20.819Z,44.90
2018-04-14T15:13:48.398Z,52.60
2018-04-14T15:16:16.144Z,52.23
2018-04-14T15:18:43.741Z,39.97
2018-04-14T15:21:11.415Z,49.00
2018-04-14T15:23:39.542Z,47.47
2018-04-14T15:26:07.268Z,50.37
2018-04-14T15:28:34.899Z,47.10
2018-04-14T15:31:02.615Z,46.50
2018-04-14T15:33:30.268Z,44.03
2018-04-14T15:35:58.059Z,49.13
2018-04-14T15:38:25.701Z,47.13
2018-04-14T15:40:53.341Z,45.80
2018-04-14T15:43:20.930Z,53.17
2018-04-14T15:45:48.675Z,57.47
2018-04-14T15:48:16.359Z,45.20
2018-04-14T15:50:43.953Z,53.87
2018-04-14T15:53:11.627Z,54.07
2018-04-14T15:55:39.288Z,49.43
2018-04-14T15:58:06.986Z,54.37
2018-04-14T16:00:34.629Z,58.57
2018-04-14T16:03:02.643Z,49.80
2018-04-14T16:05:30.299Z,64.67
2018-04-14T16:07:57.886Z,53.47
2018-04-14T16:10:25.614Z,53.40
2018-04-14T16:12:53.275Z,48.13
2018-04-14T16:15:20.857Z,53.20
2018-04-14T16:17:48.479Z,57.60
2018-04-14T16:20:16.071Z,54.60
2018-04-14T16:22:43.867Z,58.77
2018-04-14T16:25:11.697Z,52.07
2018-04-14T16:27:39.293Z,54.23
2018-04-14T16:30:06.927Z,62.60
2018-04-14T16:32:34.897Z,50.07
2018-04-14T16:35:02.547Z,52.43
2018-04-14T16:37:30.468Z,59.27
2018-04-14T16:39:58.430Z,57.60
2018-04-14T16:42:26.169Z,56.00
2018-04-14T16:44:53.778Z,54.27
2018-04-14T16:47:22.260Z,51.80
2018-04-14T16:49:50.210Z,53.63
2018-04-14T16:52:18.166Z,63.50
2018-04-14T16:54:46.146Z,63.60
2018-04-14T16:57:13.739Z,52.60
2018-04-14T16:59:41.575Z,54.73
2018-04-14T17:02:09.277Z,57.40
2018-04-14T17:04:36.858Z,67.80
2018-04-14T17:07:04.647Z,57.57
2018-04-14T17:09:32.340Z,56.03
2018-04-14T17:12:00.297Z,54.00
2018-04-14T17:14:27.928Z,60.20
2018-04-14T17:16:55.585Z,63.13
2018-04-14T17:19:23.229Z,56.23
2018-04-14T17:21:51.063Z,56.10
2018-04-14T17:24:18.721Z,56.07
2018-04-14T17:26:46.424Z,58.33
2018-04-14T17:29:14.381Z,60.93
2018-04-14T17:31:42.078Z,68.73
2018-04-14T17:34:09.720Z,66.67
2018-04-14T17:36:37.389Z,77.23
2018-04-14T17:39:05.831Z,75.77
2018-04-14T17:41:33.428Z,260.30
2018-04-14T17:44:01.166Z,86.97
2018-04-14T17:46:28.785Z,64.23
2018-04-14T17:48:56.615Z,52.67
2018-04-14T17:51:24.221Z,59.37
2018-04-14T17:53:51.873Z,57.47
2018-04-14T17:56:19.955Z,58.50
2018-04-14T17:58:47.597Z,63.10
2018-04-14T18:01:15.613Z,62.27
2018-04-14T18:03:43.390Z,62.67
2018-04-14T18:06:10.995Z,57.77
2018-04-14T18:08:38.670Z,69.63
2018-04-14T18:11:06.344Z,60.37
2018-04-14T18:13:34.330Z,57.83
2018-04-14T18:16:02.483Z,54.53
2018-04-14T18:18:30.203Z,65.90
2018-04-14T18:20:57.892Z,55.33
2018-04-14T18:23:25.566Z,58.20
2018-04-14T18:25:53.544Z,55.63
2018-04-14T18:28:21.161Z,51.10
2018-04-14T18:30:48.840Z,50.73
2018-04-14T18:33:16.516Z,58.47
2018-04-14T18:35:44.403Z,50.67
2018-04-14T18:38:12.393Z,54.90
2018-04-14T18:40:40.077Z,47.27
2018-04-14T18:43:07.687Z,50.20
2018-04-14T18:45:35.272Z,61.40
2018-04-14T18:48:03.377Z,59.03
2018-04-14T18:50:30.990Z,59.50
2018-04-14T18:52:58.639Z,60.50
2018-04-14T18:55:26.247Z,64.07
2018-04-14T18:57:53.917Z,54.20
2018-04-14T19:00:21.509Z,72.17
2018-04-14T19:02:49.197Z,54.20
2018-04-14T19:05:16.821Z,54.07
2018-04-14T19:07:44.417Z,75.83
2018-04-14T19:10:12.038Z,79.53
2018-04-14T19:12:39.722Z,83.47
2018-04-14T19:15:08.431Z,78.80
2018-04-14T19:17:36.135Z,64.13
2018-04-14T19:20:03.772Z,69.77
2018-04-14T19:22:31.938Z,71.20
2018-04-14T19:24:59.603Z,68.00
2018-04-14T19:27:27.459Z,72.87
2018-04-14T19:29:55.131Z,65.40
2018-04-14T19:32:22.839Z,59.97
2018-04-14T19:34:50.591Z,61.73
2018-04-14T19:37:18.205Z,58.30
2018-04-14T19:39:46.085Z,61.57
2018-04-14T19:42:14.733Z,59.13
2018-04-14T19:44:42.394Z,67.27
2018-04-14T19:47:10.011Z,66.37
2018-04-14T19:49:37.959Z,57.27
2018-04-14T19:52:06.850Z,65.93
2018-04-14T19:54:34.717Z,61.87
2018-04-14T19:57:02.328Z,65.10
2018-04-14T19:59:30.068Z,55.97
2018-04-14T20:01:57.679Z,71.73
2018-04-14T20:04:25.372Z,59.93
2018-04-14T20:06:53.150Z,67.40
2018-04-14T20:09:20.805Z,77.07
2018-04-14T20:11:48.554Z,70.63
2018-04-14T20:14:16.281Z,67.40
2018-04-14T20:16:43.881Z,70.77
2018-04-14T20:19:11.480Z,73.97
2018-04-14T20:21:39.431Z,71.63
2018-04-14T20:24:07.103Z,71.93
2018-04-14T20:26:34.704Z,75.20
2018-04-14T20:29:02.302Z,63.20
2018-04-14T20:31:30.112Z,61.67
2018-04-14T20:33:57.847Z,58.97
2018-04-14T20:36:25.690Z,58.90
2018-04-14T20:38:53.279Z,90.47
2018-04-14T20:41:20.941Z,99.13
2018-04-14T20:43:48.574Z,82.27
2018-04-14T20:46:16.254Z,71.30
2018-04-14T20:48:44.337Z,72.80
2018-04-14T20:51:11.917Z,80.20
2018-04-14T20:53:39.845Z,73.47
2018-04-14T20:56:07.596Z,70.20
2018-04-14T20:58:35.274Z,84.63
2018-04-14T21:01:02.931Z,78.70
2018-04-14T21:03:30.562Z,76.90
2018-04-14T21:05:58.161Z,83.07
2018-04-14T21:08:26.348Z,74.70
2018-04-14T21:10:53.929Z,68.87
2018-04-14T21:13:21.523Z,78.00
2018-04-14T21:15:49.257Z,67.90
2018-04-14T21:18:17.296Z,66.43
2018-04-14T21:20:45.043Z,77.30
2018-04-14T21:23:12.912Z,80.63
2018-04-14T21:25:40.487Z,74.63
2018-04-14T21:28:08.111Z,74.37
2018-04-14T21:30:35.862Z,72.63
2018-04-14T21:33:03.473Z,72.20
2018-04-14T21:35:31.065Z,75.87
2018-04-14T21:37:58.767Z,74.63
2018-04-14T21:40:26.363Z,70.60
2018-04-14T21:42:54.017Z,76.37
2018-04-14T21:45:21.593Z,76.90
2018-04-14T21:47:49.258Z,74.73
2018-04-14T21:50:16.895Z,72.10
2018-04-14T21:52:44.497Z,77.43
2018-04-14T21:55:12.147Z,84.57
2018-04-14T21:57:40.009Z,81.70
2018-04-14T22:00:07.730Z,77.80
2018-04-14T22:02:35.318Z,81.70
2018-04-14T22:05:03.394Z,69.77
2018-04-14T22:07:31.057Z,75.43
2018-04-14T22:09:58.650Z,64.90
2018-04-14T22:12:26.690Z,82.23
2018-04-14T22:14:54.369Z,85.83
2018-04-14T22:17:21.967Z,81.60
2018-04-14T22:19:49.582Z,69.67
2018-04-14T22:22:17.235Z,81.80
2018-04-14T22:24:44.898Z,68.50
2018-04-14T22:27:12.493Z,72.67
2018-04-14T22:29:40.243Z,79.23
2018-04-14T22:32:08.072Z,70.00
2018-04-14T22:34:35.709Z,77.30
2018-04-14T22:37:03.665Z,65.87
2018-04-14T22:39:31.570Z,75.33
2018-04-14T22:41:59.254Z,83.30
2018-04-14T22:44:26.833Z,72.33
2018-04-14T22:46:54.458Z,85.43
2018-04-14T22:49:22.330Z,88.30
2018-04-14T22:51:49.957Z,84.77
2018-04-14T22:54:17.859Z,79.50
2018-04-14T22:56:45.441Z,91.90
2018-04-14T22:59:13.174Z,82.03
2018-04-14T23:01:40.988Z,85.97
2018-04-14T23:04:08.677Z,83.63
2018-04-14T23:06:36.579Z,88.73
2018-04-14T23:09:04.226Z,76.13
2018-04-14T23:11:31.904Z,73.10
2018-04-14T23:13:59.879Z,86.63
2018-04-14T23:16:28.554Z,89.10
2018-04-14T23:18:56.204Z,83.90
2018-04-14T23:21:23.873Z,90.87
2018-04-14T23:23:51.478Z,72.13
2018-04-14T23:26:19.200Z,74.70
2018-04-14T23:28:46.929Z,75.23
2018-04-14T23:31:14.779Z,76.37
2018-04-14T23:33:42.363Z,76.40
2018-04-14T23:36:10.383Z,73.60
2018-04-14T23:38:37.968Z,81.00
2018-04-14T23:41:05.895Z,80.93
2018-04-14T23:43:33.671Z,80.90
2018-04-14T23:46:01.310Z,83.17
2018-04-14T23:48:28.901Z,76.63
2018-04-14T23:50:56.920Z,76.73
2018-04-14T23:53:24.575Z,69.40
2018-04-14T23:55:52.192Z,81.07
2018-04-14T23:58:19.915Z,77.00
